sensor_id;sensor_type;location;lat;lon;timestamp;temperature;humidity
18868;DHT22;9563;49.240;9.088;2024-01-11T05:00:19;-2.70;99.90
18868;DHT22;9563;49.240;9.088;2024-01-11T05:02:46;-2.80;99.90
18868;DHT22;9563;49.240;9.088;2024-01-11T05:05:13;-2.80;99.90
18868;DHT22;9563;49.240;9.088;2024-01-11T05:07:40;-2.80;99.90
18868;DHT22;9563;49.240;9.088;2024-01-11T05:10:07;-2.70;99.90
18868;DHT22;9563;49.240;9.088;2024-01-11T05:12:34;-2.80;99.90
18868;DHT22;9563;49.240;9.088;2024-01-11T05:15:02;-2.70;99.90
18868;DHT22;9563;49.240;9.088;2024-01-11T05:17:30;-2.70;99.90
18868;DHT22;9563;49.240;9.088;2024-01-11T05:19:57;-2.70;99.90
18868;DHT22;9563;49.240;9.088;2024-01-11T05:22:24;-2.60;99.90
18868;DHT22;9563;49.240;9.088;2024-01-11T05:24:51;-2.60;99.90
18868;DHT22;9563;49.240;9.088;2024-01-11T05:27:18;-2.50;99.90
18868;DHT22;9563;49.240;9.088;2024-01-11T05:29:45;-2.60;99.90
18868;DHT22;9563;49.240;9.088;2024-01-11T05:32:12;-2.60;99.90
18868;DHT22;9563;49.240;9.088;2024-01-11T05:34:40;-2.60;99.90
18868;DHT22;9563;49.240;9.088;2024-01-11T05:37:07;-2.60;99.90
18868;DHT22;9563;49.240;9.088;2024-01-11T05:39:34;-2.60;99.90
18868;DHT22;9563;49.240;9.088;2024-01-11T05:42:01;-2.60;99.90
18868;DHT22;9563;49.240;9.088;2024-01-11T05:44:28;-2.60;99.90
18868;DHT22;9563;49.240;9.088;2024-01-11T05:46:55;-2.70;99.90
18868;DHT22;9563;49.240;9.088;2024-01-11T05:49:22;-2.60;99.90
18868;DHT22;9563;49.240;9.088;2024-01-11T05:51:50;-2.60;99.90
18868;DHT22;9563;49.240;9.088;2024-01-11T05:54:17;-2.60;99.90
18868;DHT22;9563;49.240;9.088;2024-01-11T05:56:44;-2.50;99.90
18868;DHT22;9563;49.240;9.088;2024-01-11T05:59:11;-2.50;99.90
18868;DHT22;9563;49.240;9.088;2024-01-11T06:01:40;-2.60;99.90
18868;DHT22;9563;49.240;9.088;2024-01-11T06:04:08;-2.50;99.90
18868;DHT22;9563;49.240;9.088;2024-01-11T06:06:34;-2.50;99.90
18868;DHT22;9563;49.240;9.088;2024-01-11T06:09:03;-2.50;99.90
18868;DHT22;9563;49.240;9.088;2024-01-11T06:11:30;-2.50;99.90
18868;DHT22;9563;49.240;9.088;2024-01-11T06:13:57;-2.50;99.90
18868;DHT22;9563;49.240;9.088;2024-01-11T06:16:24;-2.40;99.90
18868;DHT22;9563;49.240;9.088;2024-01-11T06:18:51;-2.40;99.90
18868;DHT22;9563;49.240;9.088;2024-01-11T06:21:18;-2.40;99.90
18868;DHT22;9563;49.240;9.088;2024-01-11T06:23:44;-2.30;99.90
18868;DHT22;9563;49.240;9.088;2024-01-11T06:26:13;-2.30;99.90
18868;DHT22;9563;49.240;9.088;2024-01-11T06:28:39;-2.30;99.90
18868;DHT22;9563;49.240;9.088;2024-01-11T06:31:06;-2.30;99.90
18868;DHT22;9563;49.240;9.088;2024-01-11T06:33:33;-2.40;99.90
18868;DHT22;9563;49.240;9.088;2024-01-11T06:36:03;-2.40;99.90
18868;DHT22;9563;49.240;9.088;2024-01-11T06:38:30;-2.40;99.90
18868;DHT22;9563;49.240;9.088;2024-01-11T06:40:57;-2.50;99.90
18868;DHT22;9563;49.240;9.088;2024-01-11T06:43:25;-2.60;99.90
18868;DHT22;9563;49.240;9.088;2024-01-11T06:45:53;-2.60;99.90
18868;DHT22;9563;49.240;9.088;2024-01-11T06:48:20;-2.60;99.90
18868;DHT22;9563;49.240;9.088;2024-01-11T06:50:47;-2.50;99.90
18868;DHT22;9563;49.240;9.088;2024-01-11T06:53:13;-2.30;99.90
18868;DHT22;9563;49.240;9.088;2024-01-11T06:55:40;-2.20;99.90
18868;DHT22;9563;49.240;9.088;2024-01-11T06:58:09;-2.10;99.90
18868;DHT22;9563;49.240;9.088;2024-01-11T07:00:37;-2.10;99.90
18868;DHT22;9563;49.240;9.088;2024-01-11T07:03:08;-2.10;99.90
18868;DHT22;9563;49.240;9.088;2024-01-11T07:05:36;-2.10;99.90
18868;DHT22;9563;49.240;9.088;2024-01-11T07:08:03;-2.10;99.90
18868;DHT22;9563;49.240;9.088;2024-01-11T07:10:30;-2.10;99.90
18868;DHT22;9563;49.240;9.088;2024-01-11T07:12:57;-2.10;99.90
18868;DHT22;9563;49.240;9.088;2024-01-11T07:15:24;-2.20;99.90
18868;DHT22;9563;49.240;9.088;2024-01-11T07:17:53;-2.20;99.90
18868;DHT22;9563;49.240;9.088;2024-01-11T07:20:20;-2.30;99.90
18868;DHT22;9563;49.240;9.088;2024-01-11T07:22:47;-2.30;99.90
18868;DHT22;9563;49.240;9.088;2024-01-11T07:25:13;-2.20;99.90
18868;DHT22;9563;49.240;9.088;2024-01-11T07:27:40;-2.20;99.90
18868;DHT22;9563;49.240;9.088;2024-01-11T07:30:09;-2.20;99.90
18868;DHT22;9563;49.240;9.088;2024-01-11T07:32:36;-2.20;99.90
18868;DHT22;9563;49.240;9.088;2024-01-11T07:35:06;-2.20;99.90
18868;DHT22;9563;49.240;9.088;2024-01-11T07:37:33;-2.20;99.90
18868;DHT22;9563;49.240;9.088;2024-01-11T07:40:00;-2.20;99.90
18868;DHT22;9563;49.240;9.088;2024-01-11T07:42:27;-2.20;99.90
18868;DHT22;9563;49.240;9.088;2024-01-11T07:44:54;-2.10;99.90
18868;DHT22;9563;49.240;9.088;2024-01-11T07:47:21;-1.90;99.90
18868;DHT22;9563;49.240;9.088;2024-01-11T07:49:49;-1.60;99.90
18868;DHT22;9563;49.240;9.088;2024-01-11T07:52:18;-1.40;99.90
18868;DHT22;9563;49.240;9.088;2024-01-11T07:54:45;-1.10;99.90
18868;DHT22;9563;49.240;9.088;2024-01-11T07:57:12;-0.90;99.90
18868;DHT22;9563;49.240;9.088;2024-01-11T07:59:39;-0.70;99.90
18868;DHT22;9563;49.240;9.088;2024-01-11T08:02:06;-0.30;99.90
18868;DHT22;9563;49.240;9.088;2024-01-11T08:04:33;-0.20;99.90
18868;DHT22;9563;49.240;9.088;2024-01-11T08:07:00;0.00;99.90
18868;DHT22;9563;49.240;9.088;2024-01-11T08:09:29;0.00;99.90
18868;DHT22;9563;49.240;9.088;2024-01-11T08:11:56;-0.10;99.90
18868;DHT22;9563;49.240;9.088;2024-01-11T08:14:24;-0.20;99.90
18868;DHT22;9563;49.240;9.088;2024-01-11T08:16:50;-0.60;99.90
18868;DHT22;9563;49.240;9.088;2024-01-11T08:19:17;-0.70;99.90
18868;DHT22;9563;49.240;9.088;2024-01-11T08:21:44;-0.90;99.90
18868;DHT22;9563;49.240;9.088;2024-01-11T08:24:11;-1.10;99.90
18868;DHT22;9563;49.240;9.088;2024-01-11T08:26:39;-1.10;99.90
18868;DHT22;9563;49.240;9.088;2024-01-11T08:29:07;-1.10;99.90
18868;DHT22;9563;49.240;9.088;2024-01-11T08:31:34;-1.10;99.90
18868;DHT22;9563;49.240;9.088;2024-01-11T08:34:01;-1.10;99.90
18868;DHT22;9563;49.240;9.088;2024-01-11T08:36:31;-1.10;99.90
18868;DHT22;9563;49.240;9.088;2024-01-11T08:38:59;-1.10;99.90
18868;DHT22;9563;49.240;9.088;2024-01-11T08:41:26;-1.00;99.90
18868;DHT22;9563;49.240;9.088;2024-01-11T08:43:55;-1.00;99.90
18868;DHT22;9563;49.240;9.088;2024-01-11T08:46:25;-1.00;99.90
18868;DHT22;9563;49.240;9.088;2024-01-11T08:48:52;-1.00;99.90
18868;DHT22;9563;49.240;9.088;2024-01-11T08:51:20;-0.80;99.90
18868;DHT22;9563;49.240;9.088;2024-01-11T08:53:47;-0.70;99.90
18868;DHT22;9563;49.240;9.088;2024-01-11T08:56:13;-0.60;99.90
18868;DHT22;9563;49.240;9.088;2024-01-11T08:58:42;-0.60;99.90
18868;DHT22;9563;49.240;9.088;2024-01-11T09:01:10;-0.60;99.90
18868;DHT22;9563;49.240;9.088;2024-01-11T09:03:37;-0.20;99.90
18868;DHT22;9563;49.240;9.088;2024-01-11T09:06:04;0.50;99.90
18868;DHT22;9563;49.240;9.088;2024-01-11T09:08:31;1.00;99.90
18868;DHT22;9563;49.240;9.088;2024-01-11T09:10:59;1.60;99.90
18868;DHT22;9563;49.240;9.088;2024-01-11T09:13:26;1.80;99.90
18868;DHT22;9563;49.240;9.088;2024-01-11T09:15:53;2.30;99.90
18868;DHT22;9563;49.240;9.088;2024-01-11T09:18:22;2.70;99.90
18868;DHT22;9563;49.240;9.088;2024-01-11T09:20:49;2.90;99.90
18868;DHT22;9563;49.240;9.088;2024-01-11T09:23:16;3.30;99.90
18868;DHT22;9563;49.240;9.088;2024-01-11T09:25:43;3.50;99.90
18868;DHT22;9563;49.240;9.088;2024-01-11T09:28:10;3.70;99.90
18868;DHT22;9563;49.240;9.088;2024-01-11T09:30:37;3.70;99.90
18868;DHT22;9563;49.240;9.088;2024-01-11T09:33:04;3.90;99.90
18868;DHT22;9563;49.240;9.088;2024-01-11T09:35:33;4.00;99.90
18868;DHT22;9563;49.240;9.088;2024-01-11T09:38:00;4.50;99.90
18868;DHT22;9563;49.240;9.088;2024-01-11T09:40:27;4.80;99.90
18868;DHT22;9563;49.240;9.088;2024-01-11T09:42:54;5.00;99.90
18868;DHT22;9563;49.240;9.088;2024-01-11T09:45:21;5.20;99.20
18868;DHT22;9563;49.240;9.088;2024-01-11T09:47:49;5.50;98.90
18868;DHT22;9563;49.240;9.088;2024-01-11T09:50:18;5.60;97.40
18868;DHT22;9563;49.240;9.088;2024-01-11T09:52:48;6.00;96.70
18868;DHT22;9563;49.240;9.088;2024-01-11T09:55:15;6.00;95.30
18868;DHT22;9563;49.240;9.088;2024-01-11T09:57:45;6.10;95.60
18868;DHT22;9563;49.240;9.088;2024-01-11T10:00:14;6.30;94.80
18868;DHT22;9563;49.240;9.088;2024-01-11T10:02:44;6.30;94.20
18868;DHT22;9563;49.240;9.088;2024-01-11T10:05:12;6.40;93.80
18868;DHT22;9563;49.240;9.088;2024-01-11T10:07:39;6.60;94.30
18868;DHT22;9563;49.240;9.088;2024-01-11T10:10:08;6.80;93.00
18868;DHT22;9563;49.240;9.088;2024-01-11T10:12:36;6.80;92.30
18868;DHT22;9563;49.240;9.088;2024-01-11T10:15:07;6.60;92.30
18868;DHT22;9563;49.240;9.088;2024-01-11T10:17:35;6.70;92.30
18868;DHT22;9563;49.240;9.088;2024-01-11T10:20:02;6.50;92.30
18868;DHT22;9563;49.240;9.088;2024-01-11T10:22:30;6.50;92.50
18868;DHT22;9563;49.240;9.088;2024-01-11T10:25:11;6.60;92.90
18868;DHT22;9563;49.240;9.088;2024-01-11T10:27:39;6.80;93.00
18868;DHT22;9563;49.240;9.088;2024-01-11T10:30:09;7.20;92.20
18868;DHT22;9563;49.240;9.088;2024-01-11T10:32:38;6.90;92.10
18868;DHT22;9563;49.240;9.088;2024-01-11T10:35:05;7.20;91.30
18868;DHT22;9563;49.240;9.088;2024-01-11T10:37:32;7.60;91.30
18868;DHT22;9563;49.240;9.088;2024-01-11T10:40:03;7.40;91.10
18868;DHT22;9563;49.240;9.088;2024-01-11T10:42:39;7.50;90.70
18868;DHT22;9563;49.240;9.088;2024-01-11T10:45:13;7.70;90.00
18868;DHT22;9563;49.240;9.088;2024-01-11T10:47:47;7.60;88.90
18868;DHT22;9563;49.240;9.088;2024-01-11T10:50:18;7.90;89.00
18868;DHT22;9563;49.240;9.088;2024-01-11T10:52:54;7.90;88.00
18868;DHT22;9563;49.240;9.088;2024-01-11T10:55:23;7.90;88.20
18868;DHT22;9563;49.240;9.088;2024-01-11T10:57:53;8.10;87.20
18868;DHT22;9563;49.240;9.088;2024-01-11T11:00:22;8.00;86.50
18868;DHT22;9563;49.240;9.088;2024-01-11T11:02:49;7.90;87.20
18868;DHT22;9563;49.240;9.088;2024-01-11T11:05:19;7.90;87.30
18868;DHT22;9563;49.240;9.088;2024-01-11T11:07:47;7.40;87.70
18868;DHT22;9563;49.240;9.088;2024-01-11T11:10:15;6.90;90.10
18868;DHT22;9563;49.240;9.088;2024-01-11T11:12:45;6.60;90.50
18868;DHT22;9563;49.240;9.088;2024-01-11T11:15:14;6.30;91.60
18868;DHT22;9563;49.240;9.088;2024-01-11T11:17:42;6.10;92.00
18868;DHT22;9563;49.240;9.088;2024-01-11T11:20:11;5.90;92.30
18868;DHT22;9563;49.240;9.088;2024-01-11T11:22:40;5.70;93.10
18868;DHT22;9563;49.240;9.088;2024-01-11T11:25:08;5.50;92.90
18868;DHT22;9563;49.240;9.088;2024-01-11T11:27:36;5.30;93.40
18868;DHT22;9563;49.240;9.088;2024-01-11T11:30:04;5.20;94.30
18868;DHT22;9563;49.240;9.088;2024-01-11T11:32:42;5.00;94.90
18868;DHT22;9563;49.240;9.088;2024-01-11T11:35:09;4.80;95.30
18868;DHT22;9563;49.240;9.088;2024-01-11T11:37:36;4.80;95.60
18868;DHT22;9563;49.240;9.088;2024-01-11T11:40:05;4.50;95.70
18868;DHT22;9563;49.240;9.088;2024-01-11T11:42:34;4.40;96.30
18868;DHT22;9563;49.240;9.088;2024-01-11T11:45:01;4.20;97.00
18868;DHT22;9563;49.240;9.088;2024-01-11T11:47:34;4.10;97.20
18868;DHT22;9563;49.240;9.088;2024-01-11T11:50:10;4.20;97.90
18868;DHT22;9563;49.240;9.088;2024-01-11T11:52:38;4.00;97.90
18868;DHT22;9563;49.240;9.088;2024-01-11T11:55:08;4.20;98.10
18868;DHT22;9563;49.240;9.088;2024-01-11T11:57:35;4.20;97.70
18868;DHT22;9563;49.240;9.088;2024-01-11T12:00:03;4.40;98.10
18868;DHT22;9563;49.240;9.088;2024-01-11T12:02:32;4.60;98.10
18868;DHT22;9563;49.240;9.088;2024-01-11T12:05:01;4.90;97.90
18868;DHT22;9563;49.240;9.088;2024-01-11T12:07:31;5.20;97.40
18868;DHT22;9563;49.240;9.088;2024-01-11T12:09:58;5.40;97.30
18868;DHT22;9563;49.240;9.088;2024-01-11T12:12:25;5.30;96.10
18868;DHT22;9563;49.240;9.088;2024-01-11T12:14:53;5.60;96.00
18868;DHT22;9563;49.240;9.088;2024-01-11T12:17:20;5.70;95.70
18868;DHT22;9563;49.240;9.088;2024-01-11T12:19:47;5.80;95.90
18868;DHT22;9563;49.240;9.088;2024-01-11T12:22:14;5.90;95.40
18868;DHT22;9563;49.240;9.088;2024-01-11T12:24:42;6.20;95.30
18868;DHT22;9563;49.240;9.088;2024-01-11T12:27:09;6.40;94.20
18868;DHT22;9563;49.240;9.088;2024-01-11T12:29:38;6.60;93.60
18868;DHT22;9563;49.240;9.088;2024-01-11T12:32:06;6.70;93.80
18868;DHT22;9563;49.240;9.088;2024-01-11T12:34:33;6.80;93.60
18868;DHT22;9563;49.240;9.088;2024-01-11T12:37:00;6.70;93.00
18868;DHT22;9563;49.240;9.088;2024-01-11T12:39:31;6.60;92.50
18868;DHT22;9563;49.240;9.088;2024-01-11T12:41:59;6.70;93.30
18868;DHT22;9563;49.240;9.088;2024-01-11T12:44:26;7.00;92.80
18868;DHT22;9563;49.240;9.088;2024-01-11T12:46:54;7.00;92.20
18868;DHT22;9563;49.240;9.088;2024-01-11T12:49:22;7.20;92.30
18868;DHT22;9563;49.240;9.088;2024-01-11T12:51:49;7.40;91.80
18868;DHT22;9563;49.240;9.088;2024-01-11T12:54:16;7.50;91.30
18868;DHT22;9563;49.240;9.088;2024-01-11T12:56:45;7.40;91.40
18868;DHT22;9563;49.240;9.088;2024-01-11T12:59:13;7.40;91.40
18868;DHT22;9563;49.240;9.088;2024-01-11T13:01:42;7.60;90.90
18868;DHT22;9563;49.240;9.088;2024-01-11T13:04:09;7.80;90.80
18868;DHT22;9563;49.240;9.088;2024-01-11T13:06:36;8.00;90.60
18868;DHT22;9563;49.240;9.088;2024-01-11T13:09:03;8.20;90.20
18868;DHT22;9563;49.240;9.088;2024-01-11T13:11:30;8.20;89.90
18868;DHT22;9563;49.240;9.088;2024-01-11T13:13:58;8.20;88.90
18868;DHT22;9563;49.240;9.088;2024-01-11T13:16:31;8.20;88.30
18868;DHT22;9563;49.240;9.088;2024-01-11T13:18:59;8.10;89.00
18868;DHT22;9563;49.240;9.088;2024-01-11T13:21:25;8.20;88.90
18868;DHT22;9563;49.240;9.088;2024-01-11T13:23:52;8.20;88.60
18868;DHT22;9563;49.240;9.088;2024-01-11T13:26:20;8.20;88.30
18868;DHT22;9563;49.240;9.088;2024-01-11T13:28:47;8.20;86.80
18868;DHT22;9563;49.240;9.088;2024-01-11T13:31:14;8.00;87.80
18868;DHT22;9563;49.240;9.088;2024-01-11T13:33:42;8.00;89.50
18868;DHT22;9563;49.240;9.088;2024-01-11T13:36:09;7.80;89.30
18868;DHT22;9563;49.240;9.088;2024-01-11T13:38:36;7.80;89.00
18868;DHT22;9563;49.240;9.088;2024-01-11T13:41:03;7.60;89.20
18868;DHT22;9563;49.240;9.088;2024-01-11T13:43:33;7.30;89.40
18868;DHT22;9563;49.240;9.088;2024-01-11T13:46:00;6.90;90.10
18868;DHT22;9563;49.240;9.088;2024-01-11T13:48:30;6.90;91.00
18868;DHT22;9563;49.240;9.088;2024-01-11T13:50:59;6.90;91.30
18868;DHT22;9563;49.240;9.088;2024-01-11T13:53:28;6.80;91.40
18868;DHT22;9563;49.240;9.088;2024-01-11T13:55:55;6.70;91.70
18868;DHT22;9563;49.240;9.088;2024-01-11T13:58:22;6.40;91.90
18868;DHT22;9563;49.240;9.088;2024-01-11T14:00:49;6.20;92.50
18868;DHT22;9563;49.240;9.088;2024-01-11T14:03:16;5.90;92.80
18868;DHT22;9563;49.240;9.088;2024-01-11T14:05:43;5.70;93.70
18868;DHT22;9563;49.240;9.088;2024-01-11T14:08:11;5.60;94.80
18868;DHT22;9563;49.240;9.088;2024-01-11T14:10:38;5.50;94.70
18868;DHT22;9563;49.240;9.088;2024-01-11T14:13:05;5.30;95.10
18868;DHT22;9563;49.240;9.088;2024-01-11T14:15:32;5.10;95.80
18868;DHT22;9563;49.240;9.088;2024-01-11T14:17:58;5.00;95.90
18868;DHT22;9563;49.240;9.088;2024-01-11T14:20:25;5.00;96.30
18868;DHT22;9563;49.240;9.088;2024-01-11T14:22:53;4.80;97.20
18868;DHT22;9563;49.240;9.088;2024-01-11T14:25:23;4.80;97.40
18868;DHT22;9563;49.240;9.088;2024-01-11T14:27:51;4.70;97.70
18868;DHT22;9563;49.240;9.088;2024-01-11T14:30:19;4.70;97.90
18868;DHT22;9563;49.240;9.088;2024-01-11T14:32:48;4.70;98.20
18868;DHT22;9563;49.240;9.088;2024-01-11T14:35:15;4.60;98.10
18868;DHT22;9563;49.240;9.088;2024-01-11T14:37:43;4.50;98.80
18868;DHT22;9563;49.240;9.088;2024-01-11T14:40:11;4.30;98.30
18868;DHT22;9563;49.240;9.088;2024-01-11T14:42:39;4.40;99.30
18868;DHT22;9563;49.240;9.088;2024-01-11T14:45:07;4.30;99.60
18868;DHT22;9563;49.240;9.088;2024-01-11T14:47:34;4.30;99.80
18868;DHT22;9563;49.240;9.088;2024-01-11T14:50:01;4.30;99.90
18868;DHT22;9563;49.240;9.088;2024-01-11T14:52:29;4.20;99.90
18868;DHT22;9563;49.240;9.088;2024-01-11T14:54:57;4.20;99.90
18868;DHT22;9563;49.240;9.088;2024-01-11T14:57:24;4.10;99.90
18868;DHT22;9563;49.240;9.088;2024-01-11T14:59:52;4.00;99.90
18868;DHT22;9563;49.240;9.088;2024-01-11T15:02:19;4.10;99.90
18868;DHT22;9563;49.240;9.088;2024-01-11T15:04:46;3.90;99.90
18868;DHT22;9563;49.240;9.088;2024-01-11T15:07:13;3.90;99.90
18868;DHT22;9563;49.240;9.088;2024-01-11T15:09:40;3.90;99.90
18868;DHT22;9563;49.240;9.088;2024-01-11T15:12:08;4.00;99.90
18868;DHT22;9563;49.240;9.088;2024-01-11T15:14:35;3.90;99.90
18868;DHT22;9563;49.240;9.088;2024-01-11T15:17:04;3.90;99.90
18868;DHT22;9563;49.240;9.088;2024-01-11T15:19:31;3.90;99.90
18868;DHT22;9563;49.240;9.088;2024-01-11T15:21:58;3.80;99.90
18868;DHT22;9563;49.240;9.088;2024-01-11T15:24:25;3.70;99.90
18868;DHT22;9563;49.240;9.088;2024-01-11T15:26:53;3.70;99.90
18868;DHT22;9563;49.240;9.088;2024-01-11T15:29:20;3.60;99.90
18868;DHT22;9563;49.240;9.088;2024-01-11T15:31:47;3.60;99.90
18868;DHT22;9563;49.240;9.088;2024-01-11T15:34:17;3.70;99.90
18868;DHT22;9563;49.240;9.088;2024-01-11T15:36:43;4.00;99.90
18868;DHT22;9563;49.240;9.088;2024-01-11T15:39:10;4.10;99.90
18868;DHT22;9563;49.240;9.088;2024-01-11T15:41:37;3.90;99.90
18868;DHT22;9563;49.240;9.088;2024-01-11T15:44:04;3.80;99.90
18868;DHT22;9563;49.240;9.088;2024-01-11T15:46:31;3.50;99.90
18868;DHT22;9563;49.240;9.088;2024-01-11T15:48:58;3.10;99.90
18868;DHT22;9563;49.240;9.088;2024-01-11T15:51:27;2.80;99.90
18868;DHT22;9563;49.240;9.088;2024-01-11T15:53:53;2.50;99.90
18868;DHT22;9563;49.240;9.088;2024-01-11T15:56:20;2.30;99.90
18868;DHT22;9563;49.240;9.088;2024-01-11T15:58:47;2.10;99.90
18868;DHT22;9563;49.240;9.088;2024-01-11T16:01:14;2.00;99.90
18868;DHT22;9563;49.240;9.088;2024-01-11T16:03:41;1.90;99.90
18868;DHT22;9563;49.240;9.088;2024-01-11T16:06:10;1.90;99.90
18868;DHT22;9563;49.240;9.088;2024-01-11T16:08:38;1.70;99.90
18868;DHT22;9563;49.240;9.088;2024-01-11T16:11:05;1.60;99.90
18868;DHT22;9563;49.240;9.088;2024-01-11T16:13:32;1.50;99.90
18868;DHT22;9563;49.240;9.088;2024-01-11T16:15:59;1.40;99.90
18868;DHT22;9563;49.240;9.088;2024-01-11T16:18:26;1.40;99.90
18868;DHT22;9563;49.240;9.088;2024-01-11T16:20:53;1.40;99.90
18868;DHT22;9563;49.240;9.088;2024-01-11T16:23:20;1.60;99.90
18868;DHT22;9563;49.240;9.088;2024-01-11T16:25:50;1.60;99.90
18868;DHT22;9563;49.240;9.088;2024-01-11T16:28:17;1.50;99.90
18868;DHT22;9563;49.240;9.088;2024-01-11T16:30:44;1.40;99.90
18868;DHT22;9563;49.240;9.088;2024-01-11T16:33:11;1.20;99.90
18868;DHT22;9563;49.240;9.088;2024-01-11T16:35:38;1.00;99.90
18868;DHT22;9563;49.240;9.088;2024-01-11T16:38:05;0.90;99.90
18868;DHT22;9563;49.240;9.088;2024-01-11T16:40:32;1.10;99.90
18868;DHT22;9563;49.240;9.088;2024-01-11T16:43:01;1.00;99.90
18868;DHT22;9563;49.240;9.088;2024-01-11T16:45:28;0.90;99.90
18868;DHT22;9563;49.240;9.088;2024-01-11T16:47:57;0.80;99.90
18868;DHT22;9563;49.240;9.088;2024-01-11T16:50:24;0.70;99.90
18868;DHT22;9563;49.240;9.088;2024-01-11T16:52:50;0.80;99.90
18868;DHT22;9563;49.240;9.088;2024-01-11T16:55:17;0.90;99.90
18868;DHT22;9563;49.240;9.088;2024-01-11T16:57:44;0.90;99.90
18868;DHT22;9563;49.240;9.088;2024-01-11T17:00:14;0.70;99.90
18868;DHT22;9563;49.240;9.088;2024-01-11T17:02:42;0.50;99.90
18868;DHT22;9563;49.240;9.088;2024-01-11T17:05:09;0.60;99.90
18868;DHT22;9563;49.240;9.088;2024-01-11T17:07:36;0.50;99.90
18868;DHT22;9563;49.240;9.088;2024-01-11T17:10:04;0.40;99.90
18868;DHT22;9563;49.240;9.088;2024-01-11T17:12:31;0.30;99.90
18868;DHT22;9563;49.240;9.088;2024-01-11T17:14:58;0.30;99.90
18868;DHT22;9563;49.240;9.088;2024-01-11T17:17:26;0.40;99.90
18868;DHT22;9563;49.240;9.088;2024-01-11T17:19:53;0.30;99.90
18868;DHT22;9563;49.240;9.088;2024-01-11T17:22:20;0.20;99.90
18868;DHT22;9563;49.240;9.088;2024-01-11T17:24:47;0.20;99.90
18868;DHT22;9563;49.240;9.088;2024-01-11T17:27:14;0.10;99.90
18868;DHT22;9563;49.240;9.088;2024-01-11T17:29:42;0.10;99.90
18868;DHT22;9563;49.240;9.088;2024-01-11T17:32:09;0.00;99.90
18868;DHT22;9563;49.240;9.088;2024-01-11T17:34:37;-0.10;99.90
18868;DHT22;9563;49.240;9.088;2024-01-11T17:37:04;-0.20;99.90
18868;DHT22;9563;49.240;9.088;2024-01-11T17:39:31;-0.30;99.90
18868;DHT22;9563;49.240;9.088;2024-01-11T17:41:58;-0.30;99.90
18868;DHT22;9563;49.240;9.088;2024-01-11T17:44:25;-0.30;99.90
18868;DHT22;9563;49.240;9.088;2024-01-11T17:46:52;-0.20;99.90
18868;DHT22;9563;49.240;9.088;2024-01-11T17:49:19;-0.20;99.90
18868;DHT22;9563;49.240;9.088;2024-01-11T17:51:48;-0.30;99.90
18868;DHT22;9563;49.240;9.088;2024-01-11T17:54:21;-0.40;99.90
18868;DHT22;9563;49.240;9.088;2024-01-11T17:56:48;-0.30;99.90
18868;DHT22;9563;49.240;9.088;2024-01-11T17:59:15;-0.30;99.90
18868;DHT22;9563;49.240;9.088;2024-01-11T18:01:42;-0.40;99.90
18868;DHT22;9563;49.240;9.088;2024-01-11T18:04:09;-0.40;99.90
18868;DHT22;9563;49.240;9.088;2024-01-11T18:06:37;-0.50;99.90
18868;DHT22;9563;49.240;9.088;2024-01-11T18:09:06;-0.60;99.90
18868;DHT22;9563;49.240;9.088;2024-01-11T18:11:33;-0.60;99.90
18868;DHT22;9563;49.240;9.088;2024-01-11T18:14:00;-0.60;99.90
18868;DHT22;9563;49.240;9.088;2024-01-11T18:16:27;-0.70;99.90
18868;DHT22;9563;49.240;9.088;2024-01-11T18:18:54;-0.70;99.90
18868;DHT22;9563;49.240;9.088;2024-01-11T18:21:21;-0.70;99.90
18868;DHT22;9563;49.240;9.088;2024-01-11T18:23:48;-0.70;99.90
18868;DHT22;9563;49.240;9.088;2024-01-11T18:26:17;-0.60;99.90
18868;DHT22;9563;49.240;9.088;2024-01-11T18:28:44;-0.60;99.90
18868;DHT22;9563;49.240;9.088;2024-01-11T18:31:13;-0.60;99.90
18868;DHT22;9563;49.240;9.088;2024-01-11T18:33:41;-0.60;99.90
18868;DHT22;9563;49.240;9.088;2024-01-11T18:36:10;-0.70;99.90
18868;DHT22;9563;49.240;9.088;2024-01-11T18:38:37;-0.60;99.90
18868;DHT22;9563;49.240;9.088;2024-01-11T18:41:05;-0.50;99.90
18868;DHT22;9563;49.240;9.088;2024-01-11T18:43:33;-0.50;99.90
18868;DHT22;9563;49.240;9.088;2024-01-11T18:46:00;-0.40;99.90
18868;DHT22;9563;49.240;9.088;2024-01-11T18:48:27;-0.30;99.90
18868;DHT22;9563;49.240;9.088;2024-01-11T18:50:55;-0.50;99.90
18868;DHT22;9563;49.240;9.088;2024-01-11T18:53:22;-0.50;99.90
18868;DHT22;9563;49.240;9.088;2024-01-11T18:55:48;-0.50;99.90
18868;DHT22;9563;49.240;9.088;2024-01-11T18:58:15;-0.70;99.90
18868;DHT22;9563;49.240;9.088;2024-01-11T19:00:45;-0.90;99.90
18868;DHT22;9563;49.240;9.088;2024-01-11T19:03:11;-1.00;99.90
18868;DHT22;9563;49.240;9.088;2024-01-11T19:05:40;-1.00;99.90
18868;DHT22;9563;49.240;9.088;2024-01-11T19:08:07;-1.20;99.90
18868;DHT22;9563;49.240;9.088;2024-01-11T19:10:34;-1.20;99.90
18868;DHT22;9563;49.240;9.088;2024-01-11T19:13:01;-1.20;99.90
18868;DHT22;9563;49.240;9.088;2024-01-11T19:15:28;-1.00;99.90
18868;DHT22;9563;49.240;9.088;2024-01-11T19:17:57;-1.00;99.90
18868;DHT22;9563;49.240;9.088;2024-01-11T19:20:24;-0.90;99.90
18868;DHT22;9563;49.240;9.088;2024-01-11T19:22:51;-0.90;99.90
18868;DHT22;9563;49.240;9.088;2024-01-11T19:25:18;-0.70;99.90
18868;DHT22;9563;49.240;9.088;2024-01-11T19:27:45;-0.80;99.90
18868;DHT22;9563;49.240;9.088;2024-01-11T19:30:13;-0.80;99.90
18868;DHT22;9563;49.240;9.088;2024-01-11T19:32:40;-1.00;99.90
18868;DHT22;9563;49.240;9.088;2024-01-11T19:35:09;-1.10;99.90
18868;DHT22;9563;49.240;9.088;2024-01-11T19:37:36;-1.20;99.90
18868;DHT22;9563;49.240;9.088;2024-01-11T19:40:04;-1.20;99.90
18868;DHT22;9563;49.240;9.088;2024-01-11T19:42:31;-1.20;99.90
18868;DHT22;9563;49.240;9.088;2024-01-11T19:44:58;-1.10;99.90
18868;DHT22;9563;49.240;9.088;2024-01-11T19:47:25;-1.10;99.90
18868;DHT22;9563;49.240;9.088;2024-01-11T19:49:52;-1.00;99.90
18868;DHT22;9563;49.240;9.088;2024-01-11T19:52:20;-1.00;99.90
18868;DHT22;9563;49.240;9.088;2024-01-11T19:54:47;-1.00;99.90
18868;DHT22;9563;49.240;9.088;2024-01-11T19:57:14;-1.00;99.90
18868;DHT22;9563;49.240;9.088;2024-01-11T19:59:41;-1.10;99.90
18868;DHT22;9563;49.240;9.088;2024-01-11T20:02:08;-1.20;99.90
18868;DHT22;9563;49.240;9.088;2024-01-11T20:04:36;-1.20;99.90
18868;DHT22;9563;49.240;9.088;2024-01-11T20:07:03;-1.30;99.90
18868;DHT22;9563;49.240;9.088;2024-01-11T20:09:33;-1.20;99.90
18868;DHT22;9563;49.240;9.088;2024-01-11T20:12:00;-1.20;99.90
18868;DHT22;9563;49.240;9.088;2024-01-11T20:14:27;-1.30;99.90
18868;DHT22;9563;49.240;9.088;2024-01-11T20:16:54;-1.40;99.90
18868;DHT22;9563;49.240;9.088;2024-01-11T20:19:20;-1.50;99.90
18868;DHT22;9563;49.240;9.088;2024-01-11T20:21:48;-1.40;99.90
18868;DHT22;9563;49.240;9.088;2024-01-11T20:24:15;-1.40;99.90
18868;DHT22;9563;49.240;9.088;2024-01-11T20:26:43;-1.40;99.90
18868;DHT22;9563;49.240;9.088;2024-01-11T20:29:10;-1.30;99.90
18868;DHT22;9563;49.240;9.088;2024-01-11T20:31:37;-1.40;99.90
18868;DHT22;9563;49.240;9.088;2024-01-11T20:34:04;-1.40;99.90
18868;DHT22;9563;49.240;9.088;2024-01-11T20:36:32;-1.40;99.90
18868;DHT22;9563;49.240;9.088;2024-01-11T20:38:59;-1.30;99.90
18868;DHT22;9563;49.240;9.088;2024-01-11T20:41:28;-1.30;99.90
18868;DHT22;9563;49.240;9.088;2024-01-11T20:43:56;-1.40;99.90
18868;DHT22;9563;49.240;9.088;2024-01-11T20:46:23;-1.50;99.90
18868;DHT22;9563;49.240;9.088;2024-01-11T20:48:50;-1.60;99.90
18868;DHT22;9563;49.240;9.088;2024-01-11T20:51:17;-1.70;99.90
18868;DHT22;9563;49.240;9.088;2024-01-11T20:53:45;-1.70;99.90
18868;DHT22;9563;49.240;9.088;2024-01-11T20:56:13;-1.70;99.90